sensor_id;sensor_type;location;lat;lon;timestamp;P1;durP1;ratioP1;P2;durP2;ratioP2
68377;SDS011;55322;48.146;11.516;2022-12-07T00:01:34;15.10;;;7.97;;
68377;SDS011;55322;48.146;11.516;2022-12-07T00:04:02;16.38;;;8.27;;
68377;SDS011;55322;48.146;11.516;2022-12-07T00:06:35;14.80;;;8.13;;
68377;SDS011;55322;48.146;11.516;2022-12-07T00:09:03;16.17;;;8.70;;
68377;SDS011;55322;48.146;11.516;2022-12-07T00:11:30;14.57;;;7.93;;
68377;SDS011;55322;48.146;11.516;2022-12-07T00:13:59;15.63;;;8.20;;
68377;SDS011;55322;48.146;11.516;2022-12-07T00:16:28;15.38;;;8.20;;
68377;SDS011;55322;48.146;11.516;2022-12-07T00:18:55;14.35;;;7.68;;
68377;SDS011;55322;48.146;11.516;2022-12-07T00:21:21;13.00;;;7.30;;
68377;SDS011;55322;48.146;11.516;2022-12-07T00:23:48;13.15;;;7.20;;
68377;SDS011;55322;48.146;11.516;2022-12-07T00:26:22;16.05;;;7.97;;
68377;SDS011;55322;48.146;11.516;2022-12-07T00:28:48;14.00;;;7.45;;
68377;SDS011;55322;48.146;11.516;2022-12-07T00:31:17;15.38;;;8.05;;
68377;SDS011;55322;48.146;11.516;2022-12-07T00:33:43;14.23;;;6.82;;
68377;SDS011;55322;48.146;11.516;2022-12-07T00:36:10;14.63;;;7.43;;
68377;SDS011;55322;48.146;11.516;2022-12-07T00:38:37;14.57;;;7.22;;
68377;SDS011;55322;48.146;11.516;2022-12-07T00:41:09;14.48;;;7.20;;
68377;SDS011;55322;48.146;11.516;2022-12-07T00:43:36;17.15;;;7.53;;
68377;SDS011;55322;48.146;11.516;2022-12-07T00:46:02;12.98;;;7.30;;
68377;SDS011;55322;48.146;11.516;2022-12-07T00:48:28;16.05;;;8.07;;
68377;SDS011;55322;48.146;11.516;2022-12-07T00:50:53;13.93;;;7.43;;
68377;SDS011;55322;48.146;11.516;2022-12-07T00:53:19;14.67;;;7.37;;
68377;SDS011;55322;48.146;11.516;2022-12-07T00:55:45;13.27;;;7.10;;
68377;SDS011;55322;48.146;11.516;2022-12-07T00:58:10;14.95;;;6.88;;
68377;SDS011;55322;48.146;11.516;2022-12-07T01:00:37;15.10;;;7.28;;
68377;SDS011;55322;48.146;11.516;2022-12-07T01:03:03;14.77;;;7.20;;
68377;SDS011;55322;48.146;11.516;2022-12-07T01:05:30;15.63;;;7.50;;
68377;SDS011;55322;48.146;11.516;2022-12-07T01:07:55;13.82;;;7.75;;
68377;SDS011;55322;48.146;11.516;2022-12-07T01:10:21;14.70;;;7.13;;
68377;SDS011;55322;48.146;11.516;2022-12-07T01:12:47;17.20;;;7.40;;
68377;SDS011;55322;48.146;11.516;2022-12-07T01:15:12;13.40;;;6.95;;
68377;SDS011;55322;48.146;11.516;2022-12-07T01:17:38;14.53;;;7.17;;
68377;SDS011;55322;48.146;11.516;2022-12-07T01:20:03;13.20;;;7.40;;
68377;SDS011;55322;48.146;11.516;2022-12-07T01:22:29;13.73;;;7.10;;
68377;SDS011;55322;48.146;11.516;2022-12-07T01:24:54;16.80;;;7.80;;
68377;SDS011;55322;48.146;11.516;2022-12-07T01:27:20;12.50;;;6.50;;
68377;SDS011;55322;48.146;11.516;2022-12-07T01:29:45;15.53;;;7.67;;
68377;SDS011;55322;48.146;11.516;2022-12-07T01:32:11;15.90;;;7.10;;
68377;SDS011;55322;48.146;11.516;2022-12-07T01:34:36;13.13;;;6.95;;
68377;SDS011;55322;48.146;11.516;2022-12-07T01:37:01;13.50;;;6.93;;
68377;SDS011;55322;48.146;11.516;2022-12-07T01:39:27;15.13;;;7.57;;
68377;SDS011;55322;48.146;11.516;2022-12-07T01:41:52;14.50;;;7.10;;
68377;SDS011;55322;48.146;11.516;2022-12-07T01:44:19;14.00;;;7.40;;
68377;SDS011;55322;48.146;11.516;2022-12-07T01:46:46;15.10;;;7.00;;
68377;SDS011;55322;48.146;11.516;2022-12-07T01:49:59;12.80;;;6.60;;
68377;SDS011;55322;48.146;11.516;2022-12-07T01:52:25;15.60;;;7.30;;
68377;SDS011;55322;48.146;11.516;2022-12-07T01:54:56;14.07;;;7.00;;
68377;SDS011;55322;48.146;11.516;2022-12-07T01:57:26;13.50;;;7.10;;
68377;SDS011;55322;48.146;11.516;2022-12-07T01:59:52;13.27;;;6.97;;
68377;SDS011;55322;48.146;11.516;2022-12-07T02:02:32;13.98;;;7.00;;
68377;SDS011;55322;48.146;11.516;2022-12-07T02:05:00;13.27;;;7.15;;
68377;SDS011;55322;48.146;11.516;2022-12-07T02:07:27;14.13;;;7.20;;
68377;SDS011;55322;48.146;11.516;2022-12-07T02:09:53;13.88;;;7.20;;
68377;SDS011;55322;48.146;11.516;2022-12-07T02:12:19;14.37;;;7.00;;
68377;SDS011;55322;48.146;11.516;2022-12-07T02:14:45;13.27;;;6.75;;
68377;SDS011;55322;48.146;11.516;2022-12-07T02:28:29;13.57;;;7.05;;
68377;SDS011;55322;48.146;11.516;2022-12-07T02:30:58;14.45;;;7.38;;
68377;SDS011;55322;48.146;11.516;2022-12-07T02:33:41;15.77;;;7.47;;
68377;SDS011;55322;48.146;11.516;2022-12-07T02:36:12;13.32;;;7.22;;
68377;SDS011;55322;48.146;11.516;2022-12-07T02:41:27;15.75;;;7.57;;
68377;SDS011;55322;48.146;11.516;2022-12-07T02:44:07;16.30;;;7.75;;
68377;SDS011;55322;48.146;11.516;2022-12-07T02:46:39;15.52;;;7.85;;
68377;SDS011;55322;48.146;11.516;2022-12-07T02:49:07;14.60;;;7.75;;
68377;SDS011;55322;48.146;11.516;2022-12-07T02:51:33;15.50;;;7.47;;
68377;SDS011;55322;48.146;11.516;2022-12-07T02:54:07;13.23;;;7.03;;
68377;SDS011;55322;48.146;11.516;2022-12-07T03:11:03;14.38;;;7.25;;
68377;SDS011;55322;48.146;11.516;2022-12-07T03:13:35;14.82;;;7.85;;
68377;SDS011;55322;48.146;11.516;2022-12-07T03:16:15;15.10;;;8.00;;
68377;SDS011;55322;48.146;11.516;2022-12-07T03:19:15;15.18;;;7.35;;
68377;SDS011;55322;48.146;11.516;2022-12-07T03:21:46;15.90;;;7.07;;
68377;SDS011;55322;48.146;11.516;2022-12-07T03:24:19;17.33;;;8.32;;
68377;SDS011;55322;48.146;11.516;2022-12-07T03:26:53;15.13;;;7.55;;
68377;SDS011;55322;48.146;11.516;2022-12-07T03:29:44;14.65;;;7.93;;
68377;SDS011;55322;48.146;11.516;2022-12-07T03:32:20;14.82;;;7.78;;
68377;SDS011;55322;48.146;11.516;2022-12-07T03:34:53;14.82;;;7.30;;
68377;SDS011;55322;48.146;11.516;2022-12-07T03:37:29;14.75;;;7.65;;
68377;SDS011;55322;48.146;11.516;2022-12-07T03:42:47;15.60;;;8.07;;
68377;SDS011;55322;48.146;11.516;2022-12-07T03:45:13;15.40;;;8.23;;
68377;SDS011;55322;48.146;11.516;2022-12-07T03:47:47;14.70;;;8.15;;
68377;SDS011;55322;48.146;11.516;2022-12-07T03:50:36;15.93;;;8.52;;
68377;SDS011;55322;48.146;11.516;2022-12-07T03:53:11;17.98;;;7.72;;
68377;SDS011;55322;48.146;11.516;2022-12-07T03:55:42;15.48;;;8.30;;
68377;SDS011;55322;48.146;11.516;2022-12-07T03:58:10;15.43;;;8.25;;
68377;SDS011;55322;48.146;11.516;2022-12-07T04:00:39;16.33;;;8.40;;
68377;SDS011;55322;48.146;11.516;2022-12-07T04:03:06;16.45;;;9.02;;
68377;SDS011;55322;48.146;11.516;2022-12-07T04:05:31;15.80;;;8.47;;
68377;SDS011;55322;48.146;11.516;2022-12-07T04:07:57;16.73;;;8.60;;
68377;SDS011;55322;48.146;11.516;2022-12-07T04:10:22;15.70;;;8.77;;
68377;SDS011;55322;48.146;11.516;2022-12-07T04:12:47;16.60;;;8.43;;
68377;SDS011;55322;48.146;11.516;2022-12-07T04:15:13;20.70;;;8.50;;
68377;SDS011;55322;48.146;11.516;2022-12-07T04:17:38;15.17;;;8.53;;
68377;SDS011;55322;48.146;11.516;2022-12-07T04:20:04;16.43;;;8.33;;
68377;SDS011;55322;48.146;11.516;2022-12-07T04:22:30;15.15;;;7.93;;
68377;SDS011;55322;48.146;11.516;2022-12-07T04:24:55;16.27;;;8.53;;
68377;SDS011;55322;48.146;11.516;2022-12-07T04:27:21;16.83;;;8.33;;
68377;SDS011;55322;48.146;11.516;2022-12-07T04:29:46;15.67;;;8.30;;
68377;SDS011;55322;48.146;11.516;2022-12-07T04:32:11;16.73;;;8.73;;
68377;SDS011;55322;48.146;11.516;2022-12-07T04:34:37;16.80;;;8.37;;
68377;SDS011;55322;48.146;11.516;2022-12-07T04:37:02;15.35;;;8.43;;
68377;SDS011;55322;48.146;11.516;2022-12-07T04:39:28;16.80;;;8.73;;
68377;SDS011;55322;48.146;11.516;2022-12-07T04:41:55;16.60;;;8.10;;
68377;SDS011;55322;48.146;11.516;2022-12-07T04:44:21;18.05;;;9.10;;
68377;SDS011;55322;48.146;11.516;2022-12-07T04:46:48;17.50;;;8.95;;
68377;SDS011;55322;48.146;11.516;2022-12-07T04:49:14;17.95;;;9.15;;
68377;SDS011;55322;48.146;11.516;2022-12-07T04:51:40;19.27;;;8.70;;
68377;SDS011;55322;48.146;11.516;2022-12-07T04:54:05;16.27;;;8.55;;
68377;SDS011;55322;48.146;11.516;2022-12-07T04:56:30;17.07;;;8.40;;
68377;SDS011;55322;48.146;11.516;2022-12-07T04:58:56;17.33;;;9.18;;
68377;SDS011;55322;48.146;11.516;2022-12-07T05:01:22;16.73;;;9.03;;
68377;SDS011;55322;48.146;11.516;2022-12-07T05:03:48;16.45;;;9.20;;
68377;SDS011;55322;48.146;11.516;2022-12-07T05:06:14;18.10;;;8.87;;
68377;SDS011;55322;48.146;11.516;2022-12-07T05:08:40;17.63;;;9.57;;
68377;SDS011;55322;48.146;11.516;2022-12-07T05:11:06;17.38;;;8.77;;
68377;SDS011;55322;48.146;11.516;2022-12-07T05:13:32;16.27;;;8.90;;
68377;SDS011;55322;48.146;11.516;2022-12-07T05:15:58;16.40;;;8.90;;
68377;SDS011;55322;48.146;11.516;2022-12-07T05:18:23;16.95;;;9.13;;
68377;SDS011;55322;48.146;11.516;2022-12-07T05:20:49;17.02;;;8.63;;
68377;SDS011;55322;48.146;11.516;2022-12-07T05:23:16;19.33;;;9.67;;
68377;SDS011;55322;48.146;11.516;2022-12-07T05:25:41;16.30;;;8.23;;
68377;SDS011;55322;48.146;11.516;2022-12-07T05:28:07;17.30;;;9.03;;
68377;SDS011;55322;48.146;11.516;2022-12-07T05:30:32;18.53;;;8.47;;
68377;SDS011;55322;48.146;11.516;2022-12-07T05:32:57;16.80;;;8.57;;
68377;SDS011;55322;48.146;11.516;2022-12-07T05:35:23;17.00;;;8.87;;
68377;SDS011;55322;48.146;11.516;2022-12-07T05:37:48;17.57;;;8.97;;
68377;SDS011;55322;48.146;11.516;2022-12-07T05:40:14;16.83;;;8.60;;
68377;SDS011;55322;48.146;11.516;2022-12-07T05:42:40;18.30;;;10.00;;
68377;SDS011;55322;48.146;11.516;2022-12-07T05:45:05;20.33;;;9.80;;
68377;SDS011;55322;48.146;11.516;2022-12-07T05:47:31;18.27;;;9.27;;
68377;SDS011;55322;48.146;11.516;2022-12-07T05:49:57;18.03;;;9.23;;
68377;SDS011;55322;48.146;11.516;2022-12-07T05:52:22;20.97;;;10.17;;
68377;SDS011;55322;48.146;11.516;2022-12-07T05:54:47;18.93;;;10.23;;
68377;SDS011;55322;48.146;11.516;2022-12-07T05:57:13;19.60;;;9.63;;
68377;SDS011;55322;48.146;11.516;2022-12-07T05:59:38;19.98;;;10.20;;
68377;SDS011;55322;48.146;11.516;2022-12-07T06:02:05;19.97;;;9.73;;
68377;SDS011;55322;48.146;11.516;2022-12-07T06:04:33;17.92;;;9.73;;
68377;SDS011;55322;48.146;11.516;2022-12-07T06:06:59;18.23;;;9.18;;
68377;SDS011;55322;48.146;11.516;2022-12-07T06:09:25;18.17;;;9.00;;
68377;SDS011;55322;48.146;11.516;2022-12-07T06:11:52;18.58;;;9.50;;
68377;SDS011;55322;48.146;11.516;2022-12-07T06:14:37;17.70;;;9.73;;
68377;SDS011;55322;48.146;11.516;2022-12-07T06:17:02;20.65;;;10.18;;
68377;SDS011;55322;48.146;11.516;2022-12-07T06:19:28;17.75;;;9.95;;
68377;SDS011;55322;48.146;11.516;2022-12-07T06:21:54;18.90;;;9.27;;
68377;SDS011;55322;48.146;11.516;2022-12-07T06:24:19;23.80;;;10.52;;
68377;SDS011;55322;48.146;11.516;2022-12-07T06:26:45;19.07;;;10.17;;
68377;SDS011;55322;48.146;11.516;2022-12-07T06:29:11;18.95;;;10.75;;
68377;SDS011;55322;48.146;11.516;2022-12-07T06:31:37;19.02;;;9.45;;
68377;SDS011;55322;48.146;11.516;2022-12-07T06:34:04;18.92;;;9.88;;
68377;SDS011;55322;48.146;11.516;2022-12-07T06:36:31;18.63;;;10.05;;
68377;SDS011;55322;48.146;11.516;2022-12-07T06:38:57;18.10;;;10.37;;
68377;SDS011;55322;48.146;11.516;2022-12-07T06:41:23;19.77;;;10.00;;
68377;SDS011;55322;48.146;11.516;2022-12-07T06:43:48;19.63;;;9.70;;
68377;SDS011;55322;48.146;11.516;2022-12-07T06:46:14;17.97;;;9.53;;
68377;SDS011;55322;48.146;11.516;2022-12-07T06:48:40;19.23;;;9.98;;
68377;SDS011;55322;48.146;11.516;2022-12-07T06:51:06;18.45;;;9.70;;
68377;SDS011;55322;48.146;11.516;2022-12-07T06:53:32;19.03;;;9.83;;
68377;SDS011;55322;48.146;11.516;2022-12-07T06:55:57;18.47;;;9.87;;
68377;SDS011;55322;48.146;11.516;2022-12-07T06:58:22;20.27;;;9.67;;
68377;SDS011;55322;48.146;11.516;2022-12-07T07:00:48;19.77;;;9.52;;
68377;SDS011;55322;48.146;11.516;2022-12-07T07:03:17;17.63;;;9.47;;
68377;SDS011;55322;48.146;11.516;2022-12-07T07:05:42;20.75;;;10.05;;
68377;SDS011;55322;48.146;11.516;2022-12-07T07:08:08;18.98;;;10.07;;
68377;SDS011;55322;48.146;11.516;2022-12-07T07:10:34;18.40;;;9.87;;
68377;SDS011;55322;48.146;11.516;2022-12-07T07:13:00;20.42;;;10.30;;
68377;SDS011;55322;48.146;11.516;2022-12-07T07:15:25;18.20;;;9.40;;
68377;SDS011;55322;48.146;11.516;2022-12-07T07:17:51;16.90;;;9.53;;
68377;SDS011;55322;48.146;11.516;2022-12-07T07:20:16;17.70;;;10.00;;
68377;SDS011;55322;48.146;11.516;2022-12-07T07:22:42;18.42;;;9.85;;
68377;SDS011;55322;48.146;11.516;2022-12-07T07:25:07;20.63;;;10.00;;
68377;SDS011;55322;48.146;11.516;2022-12-07T07:27:32;19.83;;;10.40;;
68377;SDS011;55322;48.146;11.516;2022-12-07T07:29:58;17.40;;;9.60;;
68377;SDS011;55322;48.146;11.516;2022-12-07T07:32:23;19.87;;;10.07;;
68377;SDS011;55322;48.146;11.516;2022-12-07T07:34:48;18.40;;;10.13;;
68377;SDS011;55322;48.146;11.516;2022-12-07T07:37:14;18.57;;;9.50;;
68377;SDS011;55322;48.146;11.516;2022-12-07T07:39:39;17.20;;;9.55;;
68377;SDS011;55322;48.146;11.516;2022-12-07T07:42:04;20.50;;;10.13;;
68377;SDS011;55322;48.146;11.516;2022-12-07T07:44:30;18.30;;;10.30;;
68377;SDS011;55322;48.146;11.516;2022-12-07T07:46:56;17.63;;;9.73;;
68377;SDS011;55322;48.146;11.516;2022-12-07T07:49:21;17.83;;;9.83;;
68377;SDS011;55322;48.146;11.516;2022-12-07T07:51:46;18.67;;;10.20;;
68377;SDS011;55322;48.146;11.516;2022-12-07T07:54:12;17.33;;;9.47;;
68377;SDS011;55322;48.146;11.516;2022-12-07T07:56:37;20.87;;;10.97;;
68377;SDS011;55322;48.146;11.516;2022-12-07T07:59:02;17.93;;;9.70;;
68377;SDS011;55322;48.146;11.516;2022-12-07T08:01:27;18.13;;;9.90;;
68377;SDS011;55322;48.146;11.516;2022-12-07T08:03:53;19.00;;;9.60;;
68377;SDS011;55322;48.146;11.516;2022-12-07T08:06:18;19.53;;;10.10;;
68377;SDS011;55322;48.146;11.516;2022-12-07T08:08:43;17.60;;;9.33;;
68377;SDS011;55322;48.146;11.516;2022-12-07T08:11:09;17.13;;;9.53;;
68377;SDS011;55322;48.146;11.516;2022-12-07T08:13:34;18.17;;;9.57;;
68377;SDS011;55322;48.146;11.516;2022-12-07T08:16:07;19.15;;;10.13;;
68377;SDS011;55322;48.146;11.516;2022-12-07T08:18:35;18.20;;;9.70;;
68377;SDS011;55322;48.146;11.516;2022-12-07T08:21:01;19.23;;;9.70;;
68377;SDS011;55322;48.146;11.516;2022-12-07T08:23:27;16.85;;;9.25;;
68377;SDS011;55322;48.146;11.516;2022-12-07T08:25:53;20.30;;;10.15;;
68377;SDS011;55322;48.146;11.516;2022-12-07T08:28:18;18.37;;;10.07;;
68377;SDS011;55322;48.146;11.516;2022-12-07T08:30:44;18.03;;;9.97;;
68377;SDS011;55322;48.146;11.516;2022-12-07T08:33:09;19.53;;;9.80;;
68377;SDS011;55322;48.146;11.516;2022-12-07T08:35:35;19.85;;;10.80;;
68377;SDS011;55322;48.146;11.516;2022-12-07T08:38:01;18.93;;;10.00;;
68377;SDS011;55322;48.146;11.516;2022-12-07T08:40:27;20.45;;;11.23;;
68377;SDS011;55322;48.146;11.516;2022-12-07T08:42:53;20.02;;;10.65;;
68377;SDS011;55322;48.146;11.516;2022-12-07T08:45:19;20.50;;;11.03;;
68377;SDS011;55322;48.146;11.516;2022-12-07T08:47:50;18.58;;;10.10;;
68377;SDS011;55322;48.146;11.516;2022-12-07T08:50:18;20.92;;;10.88;;
68377;SDS011;55322;48.146;11.516;2022-12-07T08:52:44;19.52;;;9.95;;
68377;SDS011;55322;48.146;11.516;2022-12-07T08:55:19;18.63;;;10.20;;
68377;SDS011;55322;48.146;11.516;2022-12-07T08:57:45;18.65;;;10.35;;
68377;SDS011;55322;48.146;11.516;2022-12-07T09:00:11;18.57;;;10.03;;
68377;SDS011;55322;48.146;11.516;2022-12-07T09:02:36;16.95;;;8.52;;
68377;SDS011;55322;48.146;11.516;2022-12-07T09:05:02;18.17;;;9.37;;
68377;SDS011;55322;48.146;11.516;2022-12-07T09:07:28;15.43;;;8.15;;
68377;SDS011;55322;48.146;11.516;2022-12-07T09:09:57;17.98;;;9.23;;
68377;SDS011;55322;48.146;11.516;2022-12-07T09:12:22;17.30;;;8.00;;
68377;SDS011;55322;48.146;11.516;2022-12-07T09:14:47;15.87;;;8.00;;
68377;SDS011;55322;48.146;11.516;2022-12-07T09:17:13;16.40;;;8.97;;
68377;SDS011;55322;48.146;11.516;2022-12-07T09:19:38;14.97;;;7.70;;
68377;SDS011;55322;48.146;11.516;2022-12-07T09:22:04;16.27;;;8.98;;
68377;SDS011;55322;48.146;11.516;2022-12-07T09:24:30;15.88;;;8.30;;
68377;SDS011;55322;48.146;11.516;2022-12-07T09:26:56;15.80;;;8.60;;
68377;SDS011;55322;48.146;11.516;2022-12-07T09:29:22;17.60;;;9.18;;
68377;SDS011;55322;48.146;11.516;2022-12-07T09:31:48;18.67;;;10.88;;
68377;SDS011;55322;48.146;11.516;2022-12-07T09:34:13;17.00;;;8.60;;
68377;SDS011;55322;48.146;11.516;2022-12-07T09:36:39;15.80;;;8.37;;
68377;SDS011;55322;48.146;11.516;2022-12-07T09:39:04;15.38;;;8.48;;
68377;SDS011;55322;48.146;11.516;2022-12-07T09:41:30;16.33;;;8.30;;
68377;SDS011;55322;48.146;11.516;2022-12-07T09:44:03;14.73;;;7.95;;
68377;SDS011;55322;48.146;11.516;2022-12-07T09:46:31;14.98;;;8.63;;
68377;SDS011;55322;48.146;11.516;2022-12-07T09:49:01;14.57;;;8.07;;
68377;SDS011;55322;48.146;11.516;2022-12-07T09:51:26;16.87;;;8.53;;
68377;SDS011;55322;48.146;11.516;2022-12-07T09:53:52;13.87;;;7.53;;
68377;SDS011;55322;48.146;11.516;2022-12-07T09:56:21;15.27;;;8.13;;
68377;SDS011;55322;48.146;11.516;2022-12-07T09:58:47;14.52;;;7.65;;
68377;SDS011;55322;48.146;11.516;2022-12-07T10:01:15;17.17;;;8.70;;
68377;SDS011;55322;48.146;11.516;2022-12-07T10:03:51;16.30;;;8.30;;
68377;SDS011;55322;48.146;11.516;2022-12-07T10:06:18;15.35;;;8.32;;
68377;SDS011;55322;48.146;11.516;2022-12-07T10:08:43;13.87;;;7.60;;
68377;SDS011;55322;48.146;11.516;2022-12-07T10:11:09;15.20;;;8.00;;
68377;SDS011;55322;48.146;11.516;2022-12-07T10:13:36;14.87;;;7.37;;
68377;SDS011;55322;48.146;11.516;2022-12-07T10:16:03;15.57;;;7.30;;
68377;SDS011;55322;48.146;11.516;2022-12-07T10:21:13;14.65;;;7.95;;
68377;SDS011;55322;48.146;11.516;2022-12-07T10:23:59;14.65;;;8.05;;
68377;SDS011;55322;48.146;11.516;2022-12-07T10:29:16;13.57;;;7.40;;
68377;SDS011;55322;48.146;11.516;2022-12-07T10:31:45;13.35;;;7.18;;
68377;SDS011;55322;48.146;11.516;2022-12-07T10:37:19;13.65;;;6.65;;
68377;SDS011;55322;48.146;11.516;2022-12-07T10:39:46;15.10;;;7.07;;
68377;SDS011;55322;48.146;11.516;2022-12-07T10:42:21;13.10;;;6.70;;
68377;SDS011;55322;48.146;11.516;2022-12-07T10:45:07;12.35;;;6.20;;
68377;SDS011;55322;48.146;11.516;2022-12-07T10:58:57;11.40;;;5.90;;
68377;SDS011;55322;48.146;11.516;2022-12-07T11:01:32;11.15;;;5.75;;
68377;SDS011;55322;48.146;11.516;2022-12-07T11:04:15;10.35;;;5.53;;
68377;SDS011;55322;48.146;11.516;2022-12-07T11:09:43;9.48;;;5.20;;
68377;SDS011;55322;48.146;11.516;2022-12-07T11:18:14;9.95;;;5.20;;
68377;SDS011;55322;48.146;11.516;2022-12-07T11:20:48;9.63;;;4.97;;
68377;SDS011;55322;48.146;11.516;2022-12-07T11:34:36;9.53;;;4.80;;
68377;SDS011;55322;48.146;11.516;2022-12-07T11:37:08;10.13;;;4.90;;
68377;SDS011;55322;48.146;11.516;2022-12-07T11:39:42;11.13;;;5.57;;
68377;SDS011;55322;48.146;11.516;2022-12-07T11:42:15;11.38;;;5.60;;
68377;SDS011;55322;48.146;11.516;2022-12-07T11:44:56;9.48;;;5.20;;
68377;SDS011;55322;48.146;11.516;2022-12-07T11:50:13;10.15;;;5.20;;
68377;SDS011;55322;48.146;11.516;2022-12-07T11:52:59;9.20;;;4.90;;
68377;SDS011;55322;48.146;11.516;2022-12-07T11:55:57;9.35;;;4.38;;
68377;SDS011;55322;48.146;11.516;2022-12-07T11:58:44;9.73;;;4.82;;
68377;SDS011;55322;48.146;11.516;2022-12-07T12:01:22;9.27;;;4.27;;
68377;SDS011;55322;48.146;11.516;2022-12-07T12:03:55;11.48;;;5.18;;
68377;SDS011;55322;48.146;11.516;2022-12-07T12:06:26;9.43;;;4.45;;
68377;SDS011;55322;48.146;11.516;2022-12-07T12:11:52;8.35;;;3.97;;
68377;SDS011;55322;48.146;11.516;2022-12-07T12:22:34;8.88;;;4.13;;
68377;SDS011;55322;48.146;11.516;2022-12-07T12:25:04;9.93;;;4.32;;
68377;SDS011;55322;48.146;11.516;2022-12-07T12:27:33;8.32;;;3.80;;
68377;SDS011;55322;48.146;11.516;2022-12-07T12:30:03;12.43;;;4.40;;
68377;SDS011;55322;48.146;11.516;2022-12-07T12:32:40;9.48;;;3.97;;
68377;SDS011;55322;48.146;11.516;2022-12-07T12:35:27;9.00;;;4.20;;
68377;SDS011;55322;48.146;11.516;2022-12-07T12:37:54;8.30;;;3.70;;
68377;SDS011;55322;48.146;11.516;2022-12-07T12:42:46;11.00;;;4.43;;
68377;SDS011;55322;48.146;11.516;2022-12-07T12:45:21;9.07;;;3.67;;
68377;SDS011;55322;48.146;11.516;2022-12-07T12:48:01;11.45;;;4.95;;
68377;SDS011;55322;48.146;11.516;2022-12-07T12:50:49;11.02;;;4.85;;
68377;SDS011;55322;48.146;11.516;2022-12-07T12:54:02;13.55;;;5.50;;
68377;SDS011;55322;48.146;11.516;2022-12-07T12:59:25;10.50;;;4.47;;
68377;SDS011;55322;48.146;11.516;2022-12-07T13:02:33;10.52;;;4.68;;
68377;SDS011;55322;48.146;11.516;2022-12-07T13:13:24;11.93;;;5.10;;
68377;SDS011;55322;48.146;11.516;2022-12-07T13:15:50;10.60;;;5.03;;
68377;SDS011;55322;48.146;11.516;2022-12-07T13:20:57;11.30;;;5.20;;
68377;SDS011;55322;48.146;11.516;2022-12-07T13:26:23;12.27;;;4.80;;
68377;SDS011;55322;48.146;11.516;2022-12-07T13:29:19;10.50;;;4.97;;
68377;SDS011;55322;48.146;11.516;2022-12-07T13:31:52;11.30;;;5.07;;
68377;SDS011;55322;48.146;11.516;2022-12-07T13:36:54;10.63;;;4.82;;
68377;SDS011;55322;48.146;11.516;2022-12-07T13:39:21;10.77;;;4.87;;
68377;SDS011;55322;48.146;11.516;2022-12-07T13:41:49;11.40;;;5.32;;
68377;SDS011;55322;48.146;11.516;2022-12-07T13:44:17;11.60;;;5.00;;
68377;SDS011;55322;48.146;11.516;2022-12-07T13:46:52;12.38;;;5.88;;
68377;SDS011;55322;48.146;11.516;2022-12-07T13:49:30;11.97;;;5.30;;
68377;SDS011;55322;48.146;11.516;2022-12-07T13:54:44;12.07;;;5.15;;
68377;SDS011;55322;48.146;11.516;2022-12-07T13:57:20;11.27;;;5.00;;
68377;SDS011;55322;48.146;11.516;2022-12-07T13:59:46;12.23;;;5.57;;
68377;SDS011;55322;48.146;11.516;2022-12-07T14:02:20;11.90;;;5.13;;
68377;SDS011;55322;48.146;11.516;2022-12-07T14:04:49;11.35;;;4.40;;
68377;SDS011;55322;48.146;11.516;2022-12-07T14:09:55;11.37;;;5.43;;
68377;SDS011;55322;48.146;11.516;2022-12-07T14:12:22;9.80;;;4.43;;
68377;SDS011;55322;48.146;11.516;2022-12-07T14:14:49;9.98;;;4.13;;
68377;SDS011;55322;48.146;11.516;2022-12-07T14:17:15;9.80;;;4.22;;
68377;SDS011;55322;48.146;11.516;2022-12-07T14:19:47;11.05;;;4.70;;
68377;SDS011;55322;48.146;11.516;2022-12-07T14:27:38;9.90;;;4.03;;
68377;SDS011;55322;48.146;11.516;2022-12-07T14:30:05;9.05;;;4.07;;
68377;SDS011;55322;48.146;11.516;2022-12-07T14:32:31;9.30;;;3.78;;
68377;SDS011;55322;48.146;11.516;2022-12-07T14:34:58;9.13;;;3.45;;
68377;SDS011;55322;48.146;11.516;2022-12-07T14:37:28;8.70;;;3.53;;
68377;SDS011;55322;48.146;11.516;2022-12-07T14:39:55;10.23;;;3.75;;
68377;SDS011;55322;48.146;11.516;2022-12-07T14:42:20;8.90;;;3.77;;
68377;SDS011;55322;48.146;11.516;2022-12-07T14:44:51;8.43;;;3.45;;
68377;SDS011;55322;48.146;11.516;2022-12-07T14:47:16;9.27;;;3.97;;
68377;SDS011;55322;48.146;11.516;2022-12-07T14:49:41;9.47;;;3.43;;
68377;SDS011;55322;48.146;11.516;2022-12-07T14:52:10;9.48;;;3.50;;
68377;SDS011;55322;48.146;11.516;2022-12-07T14:54:41;8.70;;;3.40;;
68377;SDS011;55322;48.146;11.516;2022-12-07T14:57:08;9.33;;;3.37;;
68377;SDS011;55322;48.146;11.516;2022-12-07T14:59:34;9.15;;;3.45;;
68377;SDS011;55322;48.146;11.516;2022-12-07T15:01:59;9.50;;;3.53;;
68377;SDS011;55322;48.146;11.516;2022-12-07T15:04:24;9.63;;;3.77;;
68377;SDS011;55322;48.146;11.516;2022-12-07T15:06:57;9.10;;;3.50;;
68377;SDS011;55322;48.146;11.516;2022-12-07T15:09:23;9.00;;;3.90;;
68377;SDS011;55322;48.146;11.516;2022-12-07T15:11:49;8.17;;;3.70;;
68377;SDS011;55322;48.146;11.516;2022-12-07T15:14:14;10.10;;;3.83;;
68377;SDS011;55322;48.146;11.516;2022-12-07T15:16:40;9.02;;;4.07;;
68377;SDS011;55322;48.146;11.516;2022-12-07T15:19:14;10.25;;;4.20;;
68377;SDS011;55322;48.146;11.516;2022-12-07T15:21:41;9.65;;;4.43;;
68377;SDS011;55322;48.146;11.516;2022-12-07T15:24:08;10.20;;;3.92;;
68377;SDS011;55322;48.146;11.516;2022-12-07T15:26:34;10.57;;;4.80;;
68377;SDS011;55322;48.146;11.516;2022-12-07T15:29:00;10.43;;;4.77;;
68377;SDS011;55322;48.146;11.516;2022-12-07T15:31:25;12.10;;;4.47;;
68377;SDS011;55322;48.146;11.516;2022-12-07T15:33:51;10.40;;;4.43;;
68377;SDS011;55322;48.146;11.516;2022-12-07T15:36:20;8.33;;;3.67;;
68377;SDS011;55322;48.146;11.516;2022-12-07T15:38:47;9.98;;;4.57;;
68377;SDS011;55322;48.146;11.516;2022-12-07T15:41:13;11.23;;;4.22;;
68377;SDS011;55322;48.146;11.516;2022-12-07T15:43:38;10.20;;;4.57;;
68377;SDS011;55322;48.146;11.516;2022-12-07T15:46:22;11.65;;;4.65;;
68377;SDS011;55322;48.146;11.516;2022-12-07T15:48:48;10.90;;;4.63;;
68377;SDS011;55322;48.146;11.516;2022-12-07T15:51:13;12.33;;;5.57;;
68377;SDS011;55322;48.146;11.516;2022-12-07T15:53:38;11.63;;;5.03;;
68377;SDS011;55322;48.146;11.516;2022-12-07T15:56:07;11.77;;;4.70;;
68377;SDS011;55322;48.146;11.516;2022-12-07T15:58:33;11.40;;;5.30;;
68377;SDS011;55322;48.146;11.516;2022-12-07T16:00:59;13.27;;;5.05;;
68377;SDS011;55322;48.146;11.516;2022-12-07T16:03:24;12.80;;;5.77;;
68377;SDS011;55322;48.146;11.516;2022-12-07T16:05:50;14.03;;;5.60;;
68377;SDS011;55322;48.146;11.516;2022-12-07T16:08:15;12.40;;;5.35;;
68377;SDS011;55322;48.146;11.516;2022-12-07T16:10:41;11.97;;;5.20;;
68377;SDS011;55322;48.146;11.516;2022-12-07T16:13:08;12.13;;;5.20;;
68377;SDS011;55322;48.146;11.516;2022-12-07T16:15:40;14.13;;;5.93;;
68377;SDS011;55322;48.146;11.516;2022-12-07T16:18:06;13.13;;;5.50;;
68377;SDS011;55322;48.146;11.516;2022-12-07T16:20:32;14.48;;;5.82;;
68377;SDS011;55322;48.146;11.516;2022-12-07T16:22:57;17.10;;;5.63;;
68377;SDS011;55322;48.146;11.516;2022-12-07T16:25:23;15.57;;;5.33;;
68377;SDS011;55322;48.146;11.516;2022-12-07T16:27:48;14.23;;;5.77;;